Auburn, NY

4:13 PM EDT on April 19, 2015 (GMT -0400)
Sunholm Farms | | Change Station
CLOSE
Current Station
Personal Weather Station
Location: Fleming, NY
Elevation: 784 ft
Nearby Weather Stations

Elev 784 ft 42.86 °N, 76.63 °W | Updated 1 second ago

Clear
Clear
75.9 °F
Feels Like 77 °F
N
10.5
Wind Variable Wind from ESE
Gusts 10.5 mph

Today
High -- | Low -- °F
--% Chance of Precip.
Yesterday
High -- | Low -- °F
Precip. -- in
6:18 AM 7:52 PM
New Moon, 2% visible
Pressure 30.06 in
Visibility 10.0 miles
Clouds Scattered Clouds 16000 ft
Mostly Cloudy 20000 ft
Heat Index 77 °F
Dew Point 35 °F
Humidity 23%
Rainfall 0.00 in
Snow Depth Not available.
UV 3 out of 12
Pollen 10.00 out of 12
Air Quality Not available.
Flu Activity Widespread
METAR KSYR 191954Z 07012KT 10SM SCT160 BKN200 17/M01 A3007 RMK AO2 SLP180 T01721006

More Conditions Fewer Conditions

Pressure 30.06 in
Visibility 10.0 miles
Clouds Scattered Clouds 16000 ft
Mostly Cloudy 20000 ft
Heat Index 77 °F
Dew Point 35 °F
Humidity 23%
Rainfall 0.00 in
Snow Depth Not available.
UV 3 out of 12
Pollen 10.00 out of 12
Air Quality Not available.
Flu Activity Widespread
METAR KSYR 191954Z 07012KT 10SM SCT160 BKN200 17/M01 A3007 RMK AO2 SLP180 T01721006

More Conditions Fewer Conditions

10-Day Weather Forecast

Almanac

Astronomy

Apr. 19, 2015 Rise Set
Actual Time
Civil Twilight
Nautical Twilight
Astronomical Twilight
Moon
Length of Visible Light
Length of Day
Tomorrow will be .
, % of the Moon is Illuminated

Today's Extremes

State Highs State Lows

Community

WunderPhotos

Upload Photos

1,814,963 photos uploaded!

WunderBlogs® & News

Nearby

Air Quality

  Air Quality AQ Index Pollutant
Not available.

Snow Depth

Station Depth Elevation

Earthquake Activity

City Distance Mag. Time & Date
Minimum magnitude displayed is 2.5.

Coastal Water Temperatures

Place Temperature

Stations

Nearby Weather Stations

Station Location Temp. Windchill Dew Point Humidity Wind Precip. Elev Updated Type